sensor_id;sensor_type;location;lat;lon;timestamp;pressure;altitude;pressure_sealevel;temperature;humidity
66689;BME280;53587;59.318;18.084;2023-06-10T00:01:08;102931.13;;;20.29;86.17
66689;BME280;53587;59.318;18.084;2023-06-10T00:03:33;102933.94;;;20.51;86.33
66689;BME280;53587;59.318;18.084;2023-06-10T00:05:58;102933.03;;;20.67;84.07
66689;BME280;53587;59.318;18.084;2023-06-10T00:08:23;102934.63;;;20.80;85.04
66689;BME280;53587;59.318;18.084;2023-06-10T00:10:49;102925.53;;;20.85;81.74
66689;BME280;53587;59.318;18.084;2023-06-10T00:13:15;102936.72;;;20.00;78.04
66689;BME280;53587;59.318;18.084;2023-06-10T00:15:41;102936.34;;;19.62;78.84
66689;BME280;53587;59.318;18.084;2023-06-10T00:18:06;102938.31;;;19.21;79.00
66689;BME280;53587;59.318;18.084;2023-06-10T00:20:34;102953.72;;;19.17;80.77
66689;BME280;53587;59.318;18.084;2023-06-10T00:23:02;102945.81;;;19.66;84.24
66689;BME280;53587;59.318;18.084;2023-06-10T00:25:28;102931.13;;;19.94;85.03
66689;BME280;53587;59.318;18.084;2023-06-10T00:27:53;102937.56;;;20.17;85.52
66689;BME280;53587;59.318;18.084;2023-06-10T00:30:18;102938.47;;;20.40;82.59
66689;BME280;53587;59.318;18.084;2023-06-10T00:32:43;102942.88;;;20.58;83.09
66689;BME280;53587;59.318;18.084;2023-06-10T00:35:09;102949.81;;;20.78;81.43
66689;BME280;53587;59.318;18.084;2023-06-10T00:37:34;102956.28;;;20.83;82.37
66689;BME280;53587;59.318;18.084;2023-06-10T00:40:01;102955.00;;;20.91;80.71
66689;BME280;53587;59.318;18.084;2023-06-10T00:42:27;102960.63;;;20.06;76.89
66689;BME280;53587;59.318;18.084;2023-06-10T00:44:53;102958.84;;;19.54;77.84
66689;BME280;53587;59.318;18.084;2023-06-10T00:47:18;102970.28;;;19.17;77.41
66689;BME280;53587;59.318;18.084;2023-06-10T00:49:44;102962.53;;;19.02;80.04
66689;BME280;53587;59.318;18.084;2023-06-10T00:52:10;102960.44;;;19.50;85.13
66689;BME280;53587;59.318;18.084;2023-06-10T00:54:39;102960.06;;;19.75;86.65
66689;BME280;53587;59.318;18.084;2023-06-10T00:57:04;102956.97;;;20.00;85.62
66689;BME280;53587;59.318;18.084;2023-06-10T00:59:30;102964.81;;;20.25;82.49
66689;BME280;53587;59.318;18.084;2023-06-10T01:01:56;102965.97;;;20.47;81.09
66689;BME280;53587;59.318;18.084;2023-06-10T01:04:21;102971.22;;;20.65;80.57
66689;BME280;53587;59.318;18.084;2023-06-10T01:07:08;102963.13;;;20.07;78.01
66689;BME280;53587;59.318;18.084;2023-06-10T01:09:42;102974.06;;;19.39;78.11
66689;BME280;53587;59.318;18.084;2023-06-10T01:14:35;102989.09;;;18.67;79.77
66689;BME280;53587;59.318;18.084;2023-06-10T01:17:01;102977.34;;;19.24;84.08
66689;BME280;53587;59.318;18.084;2023-06-10T01:19:26;102970.75;;;19.54;84.82
66689;BME280;53587;59.318;18.084;2023-06-10T01:21:51;102970.41;;;19.79;85.24
66689;BME280;53587;59.318;18.084;2023-06-10T01:24:16;102967.50;;;20.03;81.39
66689;BME280;53587;59.318;18.084;2023-06-10T01:26:43;102969.53;;;20.25;81.20
66689;BME280;53587;59.318;18.084;2023-06-10T01:29:11;102979.81;;;20.47;80.04
66689;BME280;53587;59.318;18.084;2023-06-10T01:31:49;102977.22;;;20.57;80.48
66689;BME280;53587;59.318;18.084;2023-06-10T01:34:17;102980.72;;;20.69;79.44
66689;BME280;53587;59.318;18.084;2023-06-10T01:36:44;102980.59;;;19.79;76.91
66689;BME280;53587;59.318;18.084;2023-06-10T01:39:10;102979.19;;;19.19;78.37
66689;BME280;53587;59.318;18.084;2023-06-10T01:41:36;102984.97;;;18.81;77.83
66689;BME280;53587;59.318;18.084;2023-06-10T01:44:02;102996.28;;;18.68;80.27
66689;BME280;53587;59.318;18.084;2023-06-10T01:46:27;102996.69;;;19.24;84.01
66689;BME280;53587;59.318;18.084;2023-06-10T01:48:53;102996.03;;;19.46;85.90
66689;BME280;53587;59.318;18.084;2023-06-10T01:51:18;102995.44;;;19.73;84.59
66689;BME280;53587;59.318;18.084;2023-06-10T01:53:43;102989.66;;;20.03;80.20
66689;BME280;53587;59.318;18.084;2023-06-10T01:56:08;102996.53;;;20.18;81.28
66689;BME280;53587;59.318;18.084;2023-06-10T01:58:34;102995.69;;;20.34;80.20
66689;BME280;53587;59.318;18.084;2023-06-10T02:01:00;102997.03;;;20.49;79.84
66689;BME280;53587;59.318;18.084;2023-06-10T02:03:25;102991.38;;;20.60;79.77
66689;BME280;53587;59.318;18.084;2023-06-10T02:05:50;103003.00;;;20.06;76.76
66689;BME280;53587;59.318;18.084;2023-06-10T02:08:15;103000.78;;;19.34;77.60
66689;BME280;53587;59.318;18.084;2023-06-10T02:10:41;103004.19;;;19.00;76.78
66689;BME280;53587;59.318;18.084;2023-06-10T02:13:06;103006.25;;;18.57;77.14
66689;BME280;53587;59.318;18.084;2023-06-10T02:15:31;103001.53;;;18.81;82.46
66689;BME280;53587;59.318;18.084;2023-06-10T02:17:56;102999.63;;;19.18;84.51
66689;BME280;53587;59.318;18.084;2023-06-10T02:20:22;102998.69;;;19.41;86.17
66689;BME280;53587;59.318;18.084;2023-06-10T02:22:48;102992.56;;;19.68;83.07
66689;BME280;53587;59.318;18.084;2023-06-10T02:25:13;103002.72;;;19.91;80.67
66689;BME280;53587;59.318;18.084;2023-06-10T02:30:03;102991.16;;;20.28;79.75
66689;BME280;53587;59.318;18.084;2023-06-10T02:32:29;103004.69;;;20.41;80.50
66689;BME280;53587;59.318;18.084;2023-06-10T02:34:54;102999.28;;;20.52;77.94
66689;BME280;53587;59.318;18.084;2023-06-10T02:37:19;103012.00;;;19.56;76.55
66689;BME280;53587;59.318;18.084;2023-06-10T02:39:45;103013.31;;;19.12;78.07
66689;BME280;53587;59.318;18.084;2023-06-10T02:42:10;103015.75;;;18.73;77.95
66689;BME280;53587;59.318;18.084;2023-06-10T02:44:36;103018.63;;;18.78;82.64
66689;BME280;53587;59.318;18.084;2023-06-10T02:47:01;103015.94;;;19.31;85.09
66689;BME280;53587;59.318;18.084;2023-06-10T02:49:26;103013.63;;;19.69;85.53
66689;BME280;53587;59.318;18.084;2023-06-10T02:51:53;103009.28;;;20.02;84.72
66689;BME280;53587;59.318;18.084;2023-06-10T02:54:21;103011.06;;;20.25;81.52
66689;BME280;53587;59.318;18.084;2023-06-10T02:56:46;103009.13;;;20.42;82.42
66689;BME280;53587;59.318;18.084;2023-06-10T02:59:13;103007.59;;;20.52;78.77
66689;BME280;53587;59.318;18.084;2023-06-10T03:01:38;103015.44;;;19.63;76.58
66689;BME280;53587;59.318;18.084;2023-06-10T03:04:04;103017.66;;;19.08;78.56
66689;BME280;53587;59.318;18.084;2023-06-10T03:06:29;103018.38;;;18.68;78.25
66689;BME280;53587;59.318;18.084;2023-06-10T03:08:55;103020.88;;;18.58;82.30
66689;BME280;53587;59.318;18.084;2023-06-10T03:11:20;103025.72;;;18.98;84.61
66689;BME280;53587;59.318;18.084;2023-06-10T03:13:45;103025.78;;;19.27;86.98
66689;BME280;53587;59.318;18.084;2023-06-10T03:16:10;103035.47;;;19.53;85.06
66689;BME280;53587;59.318;18.084;2023-06-10T03:18:37;103019.34;;;19.79;80.77
66689;BME280;53587;59.318;18.084;2023-06-10T03:21:02;103026.16;;;20.00;81.34
66689;BME280;53587;59.318;18.084;2023-06-10T03:23:28;103024.22;;;20.18;80.49
66689;BME280;53587;59.318;18.084;2023-06-10T03:25:54;103036.63;;;20.32;80.41
66689;BME280;53587;59.318;18.084;2023-06-10T03:28:20;103039.75;;;20.53;78.86
66689;BME280;53587;59.318;18.084;2023-06-10T03:30:46;103028.75;;;20.58;79.67
66689;BME280;53587;59.318;18.084;2023-06-10T03:33:11;103024.72;;;20.66;79.57
66689;BME280;53587;59.318;18.084;2023-06-10T03:35:37;103029.25;;;20.21;76.92
66689;BME280;53587;59.318;18.084;2023-06-10T03:38:02;103034.53;;;19.36;77.13
66689;BME280;53587;59.318;18.084;2023-06-10T03:40:27;103032.44;;;18.90;77.97
66689;BME280;53587;59.318;18.084;2023-06-10T03:42:52;103033.75;;;18.52;78.55
66689;BME280;53587;59.318;18.084;2023-06-10T03:45:18;103039.63;;;18.79;83.27
66689;BME280;53587;59.318;18.084;2023-06-10T03:47:43;103043.13;;;19.10;85.96
66689;BME280;53587;59.318;18.084;2023-06-10T03:50:09;103043.91;;;19.35;86.24
66689;BME280;53587;59.318;18.084;2023-06-10T03:52:35;103034.47;;;19.59;83.08
66689;BME280;53587;59.318;18.084;2023-06-10T03:55:00;103034.03;;;19.79;82.95
66689;BME280;53587;59.318;18.084;2023-06-10T03:57:25;103026.38;;;19.99;81.69
66689;BME280;53587;59.318;18.084;2023-06-10T03:59:51;103030.09;;;20.21;79.25
66689;BME280;53587;59.318;18.084;2023-06-10T04:02:16;103028.91;;;20.34;79.94
66689;BME280;53587;59.318;18.084;2023-06-10T04:04:41;103034.72;;;20.50;78.79
66689;BME280;53587;59.318;18.084;2023-06-10T04:07:07;103032.63;;;20.57;79.29
66689;BME280;53587;59.318;18.084;2023-06-10T04:09:33;103035.81;;;20.66;78.56
66689;BME280;53587;59.318;18.084;2023-06-10T04:11:59;103032.88;;;20.72;78.64
66689;BME280;53587;59.318;18.084;2023-06-10T04:14:24;103036.56;;;20.78;78.73
66689;BME280;53587;59.318;18.084;2023-06-10T04:16:49;103030.25;;;20.15;75.66
66689;BME280;53587;59.318;18.084;2023-06-10T04:19:15;103040.91;;;19.36;76.62
66689;BME280;53587;59.318;18.084;2023-06-10T04:21:41;103036.66;;;18.93;77.85
66689;BME280;53587;59.318;18.084;2023-06-10T04:24:06;103044.41;;;18.48;78.29
66689;BME280;53587;59.318;18.084;2023-06-10T04:26:32;103038.56;;;18.80;83.38
66689;BME280;53587;59.318;18.084;2023-06-10T04:28:58;103047.06;;;19.14;85.21
66689;BME280;53587;59.318;18.084;2023-06-10T04:31:23;103042.81;;;19.36;86.80
66689;BME280;53587;59.318;18.084;2023-06-10T04:33:49;103043.00;;;19.58;82.99
66689;BME280;53587;59.318;18.084;2023-06-10T04:36:14;103046.28;;;19.84;81.12
66689;BME280;53587;59.318;18.084;2023-06-10T04:38:39;103043.31;;;20.02;80.68
66689;BME280;53587;59.318;18.084;2023-06-10T04:41:05;103039.84;;;20.24;79.07
66689;BME280;53587;59.318;18.084;2023-06-10T04:43:31;103044.38;;;20.30;78.82
66689;BME280;53587;59.318;18.084;2023-06-10T04:45:56;103047.38;;;20.46;78.24
66689;BME280;53587;59.318;18.084;2023-06-10T04:48:21;103039.25;;;20.56;78.55
66689;BME280;53587;59.318;18.084;2023-06-10T04:50:48;103046.56;;;20.62;79.22
66689;BME280;53587;59.318;18.084;2023-06-10T04:53:14;103045.53;;;20.68;77.86
66689;BME280;53587;59.318;18.084;2023-06-10T04:55:40;103050.09;;;20.74;78.03
66689;BME280;53587;59.318;18.084;2023-06-10T04:58:05;103048.06;;;20.53;74.73
66689;BME280;53587;59.318;18.084;2023-06-10T05:00:30;103056.25;;;19.56;76.06
66689;BME280;53587;59.318;18.084;2023-06-10T05:02:55;103051.78;;;19.02;77.67
66689;BME280;53587;59.318;18.084;2023-06-10T05:05:21;103053.06;;;18.64;77.82
66689;BME280;53587;59.318;18.084;2023-06-10T05:07:46;103049.84;;;18.67;81.86
66689;BME280;53587;59.318;18.084;2023-06-10T05:10:11;103051.31;;;19.05;84.78
66689;BME280;53587;59.318;18.084;2023-06-10T05:12:40;103053.66;;;19.25;86.93
66689;BME280;53587;59.318;18.084;2023-06-10T05:15:06;103060.16;;;19.72;83.88
66689;BME280;53587;59.318;18.084;2023-06-10T05:17:31;103048.22;;;20.29;81.17
66689;BME280;53587;59.318;18.084;2023-06-10T05:19:57;103042.69;;;20.29;79.21
66689;BME280;53587;59.318;18.084;2023-06-10T05:22:22;103048.16;;;19.95;77.33
66689;BME280;53587;59.318;18.084;2023-06-10T05:24:49;103055.38;;;19.67;78.02
66689;BME280;53587;59.318;18.084;2023-06-10T05:27:16;103054.84;;;19.70;79.71
66689;BME280;53587;59.318;18.084;2023-06-10T05:29:41;103048.06;;;20.19;84.49
66689;BME280;53587;59.318;18.084;2023-06-10T05:32:06;103047.06;;;20.76;86.24
66689;BME280;53587;59.318;18.084;2023-06-10T05:34:31;103039.66;;;20.65;78.34
66689;BME280;53587;59.318;18.084;2023-06-10T05:36:57;103051.22;;;20.44;78.07
66689;BME280;53587;59.318;18.084;2023-06-10T05:39:22;103052.34;;;20.43;79.41
66689;BME280;53587;59.318;18.084;2023-06-10T05:41:47;103055.69;;;20.46;78.66
66689;BME280;53587;59.318;18.084;2023-06-10T05:44:12;103059.34;;;21.02;84.45
66689;BME280;53587;59.318;18.084;2023-06-10T05:46:38;103058.13;;;20.93;77.71
66689;BME280;53587;59.318;18.084;2023-06-10T05:49:03;103052.41;;;20.83;78.12
66689;BME280;53587;59.318;18.084;2023-06-10T05:51:28;103056.88;;;20.84;78.19
66689;BME280;53587;59.318;18.084;2023-06-10T05:53:54;103053.09;;;20.90;78.09
66689;BME280;53587;59.318;18.084;2023-06-10T05:56:19;103061.78;;;20.99;79.72
66689;BME280;53587;59.318;18.084;2023-06-10T05:58:46;103059.59;;;21.18;80.03
66689;BME280;53587;59.318;18.084;2023-06-10T06:01:11;103058.69;;;21.34;80.08
66689;BME280;53587;59.318;18.084;2023-06-10T06:03:36;103066.88;;;21.46;79.05
66689;BME280;53587;59.318;18.084;2023-06-10T06:06:02;103067.34;;;21.60;79.43
66689;BME280;53587;59.318;18.084;2023-06-10T06:08:27;103060.25;;;21.69;79.72
66689;BME280;53587;59.318;18.084;2023-06-10T06:10:52;103064.75;;;21.76;78.00
66689;BME280;53587;59.318;18.084;2023-06-10T06:13:18;103065.31;;;21.78;79.46
66689;BME280;53587;59.318;18.084;2023-06-10T06:15:43;103067.38;;;21.87;80.35
66689;BME280;53587;59.318;18.084;2023-06-10T06:18:08;103064.28;;;21.84;80.95
66689;BME280;53587;59.318;18.084;2023-06-10T06:20:34;103072.09;;;21.87;79.92
66689;BME280;53587;59.318;18.084;2023-06-10T06:22:59;103060.03;;;21.76;77.40
66689;BME280;53587;59.318;18.084;2023-06-10T06:25:24;103067.47;;;21.48;78.75
66689;BME280;53587;59.318;18.084;2023-06-10T06:27:49;103070.81;;;21.50;80.23
66689;BME280;53587;59.318;18.084;2023-06-10T06:30:17;103069.66;;;21.46;81.12
66689;BME280;53587;59.318;18.084;2023-06-10T06:32:42;103070.84;;;21.55;80.32
66689;BME280;53587;59.318;18.084;2023-06-10T06:35:07;103073.22;;;21.64;79.70
66689;BME280;53587;59.318;18.084;2023-06-10T06:37:33;103076.75;;;21.59;80.06
66689;BME280;53587;59.318;18.084;2023-06-10T06:39:58;103073.44;;;21.57;79.84
66689;BME280;53587;59.318;18.084;2023-06-10T06:42:24;103082.56;;;21.58;80.89
66689;BME280;53587;59.318;18.084;2023-06-10T06:44:49;103082.47;;;21.69;80.54
66689;BME280;53587;59.318;18.084;2023-06-10T06:47:14;103086.81;;;21.65;79.62
66689;BME280;53587;59.318;18.084;2023-06-10T06:49:39;103089.38;;;21.67;80.28
66689;BME280;53587;59.318;18.084;2023-06-10T06:52:05;103086.66;;;21.72;79.81
66689;BME280;53587;59.318;18.084;2023-06-10T06:54:30;103092.50;;;21.76;79.97
66689;BME280;53587;59.318;18.084;2023-06-10T06:56:55;103091.16;;;21.78;80.21
66689;BME280;53587;59.318;18.084;2023-06-10T06:59:20;103091.47;;;21.82;79.12
66689;BME280;53587;59.318;18.084;2023-06-10T07:01:46;103096.72;;;21.78;80.43
66689;BME280;53587;59.318;18.084;2023-06-10T07:04:11;103097.25;;;21.80;80.74
66689;BME280;53587;59.318;18.084;2023-06-10T07:06:37;103093.16;;;21.83;81.13
66689;BME280;53587;59.318;18.084;2023-06-10T07:09:03;103091.22;;;21.83;79.46
66689;BME280;53587;59.318;18.084;2023-06-10T07:11:28;103103.50;;;21.93;78.95
66689;BME280;53587;59.318;18.084;2023-06-10T07:13:53;103103.28;;;21.94;79.76
66689;BME280;53587;59.318;18.084;2023-06-10T07:16:18;103102.47;;;21.99;78.65
66689;BME280;53587;59.318;18.084;2023-06-10T07:18:45;103091.97;;;21.79;79.46
66689;BME280;53587;59.318;18.084;2023-06-10T07:21:11;103100.31;;;21.79;80.03
66689;BME280;53587;59.318;18.084;2023-06-10T07:23:36;103099.72;;;21.77;79.58
66689;BME280;53587;59.318;18.084;2023-06-10T07:26:01;103091.97;;;21.79;79.44
66689;BME280;53587;59.318;18.084;2023-06-10T07:28:26;103094.09;;;21.71;78.29
66689;BME280;53587;59.318;18.084;2023-06-10T07:30:52;103100.69;;;21.65;78.61
66689;BME280;53587;59.318;18.084;2023-06-10T07:33:17;103096.84;;;21.66;78.86
66689;BME280;53587;59.318;18.084;2023-06-10T07:35:42;103096.88;;;21.71;79.38
66689;BME280;53587;59.318;18.084;2023-06-10T07:38:08;103096.25;;;21.64;78.83
66689;BME280;53587;59.318;18.084;2023-06-10T07:40:33;103091.56;;;21.65;77.53
66689;BME280;53587;59.318;18.084;2023-06-10T07:42:58;103088.50;;;21.66;78.54
66689;BME280;53587;59.318;18.084;2023-06-10T07:45:23;103098.94;;;21.81;80.10
66689;BME280;53587;59.318;18.084;2023-06-10T07:47:49;103090.44;;;21.88;80.51
66689;BME280;53587;59.318;18.084;2023-06-10T07:50:14;103094.31;;;21.87;79.87
66689;BME280;53587;59.318;18.084;2023-06-10T07:52:39;103101.03;;;21.96;79.16
66689;BME280;53587;59.318;18.084;2023-06-10T07:55:05;103104.69;;;21.97;79.30
66689;BME280;53587;59.318;18.084;2023-06-10T07:57:30;103102.28;;;22.06;78.83
66689;BME280;53587;59.318;18.084;2023-06-10T07:59:59;103101.00;;;21.91;78.50
66689;BME280;53587;59.318;18.084;2023-06-10T08:02:25;103100.94;;;21.86;80.00
66689;BME280;53587;59.318;18.084;2023-06-10T08:04:50;103103.13;;;21.84;79.27
66689;BME280;53587;59.318;18.084;2023-06-10T08:07:15;103098.38;;;21.79;80.01
66689;BME280;53587;59.318;18.084;2023-06-10T08:09:41;103096.88;;;21.71;78.13
66689;BME280;53587;59.318;18.084;2023-06-10T08:12:06;103102.44;;;21.71;79.27
66689;BME280;53587;59.318;18.084;2023-06-10T08:14:32;103101.34;;;21.73;80.32
66689;BME280;53587;59.318;18.084;2023-06-10T08:16:57;103100.25;;;21.74;78.84
66689;BME280;53587;59.318;18.084;2023-06-10T08:19:22;103104.88;;;21.68;79.68
66689;BME280;53587;59.318;18.084;2023-06-10T08:21:47;103102.66;;;21.65;79.96
66689;BME280;53587;59.318;18.084;2023-06-10T08:24:13;103100.97;;;21.64;80.02
66689;BME280;53587;59.318;18.084;2023-06-10T08:26:40;103104.66;;;21.69;78.57
66689;BME280;53587;59.318;18.084;2023-06-10T08:29:05;103102.44;;;21.71;78.27
66689;BME280;53587;59.318;18.084;2023-06-10T08:31:30;103100.53;;;21.72;78.75
66689;BME280;53587;59.318;18.084;2023-06-10T08:33:56;103105.47;;;21.70;79.63
66689;BME280;53587;59.318;18.084;2023-06-10T08:36:21;103100.75;;;21.70;79.75
66689;BME280;53587;59.318;18.084;2023-06-10T08:38:46;103105.16;;;21.66;78.96
66689;BME280;53587;59.318;18.084;2023-06-10T08:41:12;103094.31;;;21.65;78.66
66689;BME280;53587;59.318;18.084;2023-06-10T08:43:42;103090.13;;;21.62;79.14
66689;BME280;53587;59.318;18.084;2023-06-10T08:46:09;103092.06;;;21.62;79.42
66689;BME280;53587;59.318;18.084;2023-06-10T08:48:35;103096.06;;;21.71;79.47
66689;BME280;53587;59.318;18.084;2023-06-10T08:51:04;103085.69;;;21.61;78.33
66689;BME280;53587;59.318;18.084;2023-06-10T08:53:30;103087.34;;;21.62;78.63
66689;BME280;53587;59.318;18.084;2023-06-10T08:56:01;103083.41;;;21.58;78.41
66689;BME280;53587;59.318;18.084;2023-06-10T08:58:29;103087.84;;;21.59;79.49
66689;BME280;53587;59.318;18.084;2023-06-10T09:00:54;103090.06;;;21.57;79.64
66689;BME280;53587;59.318;18.084;2023-06-10T09:03:20;103084.84;;;21.61;76.97
66689;BME280;53587;59.318;18.084;2023-06-10T09:05:46;103092.72;;;21.52;78.76
66689;BME280;53587;59.318;18.084;2023-06-10T09:08:12;103083.31;;;21.53;80.60
66689;BME280;53587;59.318;18.084;2023-06-10T09:10:37;103090.19;;;21.67;80.45
66689;BME280;53587;59.318;18.084;2023-06-10T09:13:03;103086.81;;;21.65;80.96
66689;BME280;53587;59.318;18.084;2023-06-10T09:15:28;103082.19;;;21.71;78.47
66689;BME280;53587;59.318;18.084;2023-06-10T09:17:53;103078.56;;;21.70;79.02
66689;BME280;53587;59.318;18.084;2023-06-10T09:20:19;103086.44;;;21.79;80.67
66689;BME280;53587;59.318;18.084;2023-06-10T09:22:44;103085.19;;;21.92;81.34
66689;BME280;53587;59.318;18.084;2023-06-10T09:25:13;103076.19;;;21.79;79.36
66689;BME280;53587;59.318;18.084;2023-06-10T09:27:45;103076.22;;;21.84;77.98
66689;BME280;53587;59.318;18.084;2023-06-10T09:33:03;103077.00;;;21.80;79.79
66689;BME280;53587;59.318;18.084;2023-06-10T09:35:47;103075.31;;;21.79;78.61
66689;BME280;53587;59.318;18.084;2023-06-10T09:38:20;103072.94;;;21.87;78.07
66689;BME280;53587;59.318;18.084;2023-06-10T09:40:53;103072.81;;;21.77;78.16
66689;BME280;53587;59.318;18.084;2023-06-10T09:43:19;103076.91;;;21.69;78.72
66689;BME280;53587;59.318;18.084;2023-06-10T09:45:52;103075.00;;;21.75;79.37
66689;BME280;53587;59.318;18.084;2023-06-10T09:48:23;103068.38;;;21.76;78.81
66689;BME280;53587;59.318;18.084;2023-06-10T09:50:49;103072.19;;;21.70;78.11
66689;BME280;53587;59.318;18.084;2023-06-10T09:53:14;103075.78;;;21.70;78.88
66689;BME280;53587;59.318;18.084;2023-06-10T09:55:45;103075.22;;;21.68;79.54
66689;BME280;53587;59.318;18.084;2023-06-10T09:58:13;103078.50;;;21.65;79.28
66689;BME280;53587;59.318;18.084;2023-06-10T10:00:45;103077.41;;;21.66;79.49
66689;BME280;53587;59.318;18.084;2023-06-10T10:03:26;103070.13;;;21.60;79.18
66689;BME280;53587;59.318;18.084;2023-06-10T10:06:00;103077.94;;;21.63;78.89
66689;BME280;53587;59.318;18.084;2023-06-10T10:08:26;103080.06;;;21.56;79.22
66689;BME280;53587;59.318;18.084;2023-06-10T10:10:51;103071.75;;;21.56;80.02
66689;BME280;53587;59.318;18.084;2023-06-10T10:13:25;103067.19;;;21.50;80.29
66689;BME280;53587;59.318;18.084;2023-06-10T10:15:55;103069.28;;;21.37;79.00
66689;BME280;53587;59.318;18.084;2023-06-10T10:18:22;103060.47;;;21.46;80.03
66689;BME280;53587;59.318;18.084;2023-06-10T10:20:53;103058.94;;;21.55;79.33
66689;BME280;53587;59.318;18.084;2023-06-10T10:23:29;103067.88;;;21.57;79.82
66689;BME280;53587;59.318;18.084;2023-06-10T10:25:56;103061.97;;;21.53;79.00
66689;BME280;53587;59.318;18.084;2023-06-10T10:28:54;103057.78;;;21.51;78.42
66689;BME280;53587;59.318;18.084;2023-06-10T10:31:24;103060.47;;;21.46;79.14
66689;BME280;53587;59.318;18.084;2023-06-10T10:34:09;103067.91;;;21.40;79.90
66689;BME280;53587;59.318;18.084;2023-06-10T10:36:38;103066.34;;;21.49;80.41
66689;BME280;53587;59.318;18.084;2023-06-10T10:39:08;103059.84;;;21.38;79.28
66689;BME280;53587;59.318;18.084;2023-06-10T10:41:34;103066.22;;;21.39;79.95
66689;BME280;53587;59.318;18.084;2023-06-10T10:44:05;103071.41;;;21.52;79.93
66689;BME280;53587;59.318;18.084;2023-06-10T10:46:41;103071.47;;;21.58;81.17
66689;BME280;53587;59.318;18.084;2023-06-10T10:49:07;103071.34;;;21.69;82.32
66689;BME280;53587;59.318;18.084;2023-06-10T10:51:36;103065.81;;;21.69;80.02
66689;BME280;53587;59.318;18.084;2023-06-10T10:54:17;103061.44;;;21.79;80.94
66689;BME280;53587;59.318;18.084;2023-06-10T10:59:35;103068.41;;;21.81;80.45
66689;BME280;53587;59.318;18.084;2023-06-10T11:02:07;103068.09;;;21.78;81.56
66689;BME280;53587;59.318;18.084;2023-06-10T11:04:33;103067.59;;;21.81;80.59
66689;BME280;53587;59.318;18.084;2023-06-10T11:07:05;103060.56;;;21.73;80.76
66689;BME280;53587;59.318;18.084;2023-06-10T11:09:31;103062.53;;;21.78;79.32
66689;BME280;53587;59.318;18.084;2023-06-10T11:11:57;103063.41;;;21.78;80.09
66689;BME280;53587;59.318;18.084;2023-06-10T11:14:28;103057.00;;;21.78;80.73
66689;BME280;53587;59.318;18.084;2023-06-10T11:16:53;103061.44;;;21.79;80.77
66689;BME280;53587;59.318;18.084;2023-06-10T11:19:37;103057.31;;;21.81;80.68
66689;BME280;53587;59.318;18.084;2023-06-10T11:22:05;103059.78;;;21.78;79.94
66689;BME280;53587;59.318;18.084;2023-06-10T11:24:33;103066.72;;;21.80;80.14
66689;BME280;53587;59.318;18.084;2023-06-10T11:27:15;103058.09;;;21.77;80.68
66689;BME280;53587;59.318;18.084;2023-06-10T11:30:26;103064.53;;;21.82;80.53
66689;BME280;53587;59.318;18.084;2023-06-10T11:32:32;103058.56;;;21.68;79.30
66689;BME280;53587;59.318;18.084;2023-06-10T11:34:57;103051.44;;;21.78;79.83
66689;BME280;53587;59.318;18.084;2023-06-10T11:37:25;103055.94;;;21.84;80.33
66689;BME280;53587;59.318;18.084;2023-06-10T11:39:51;103059.31;;;21.86;79.41
66689;BME280;53587;59.318;18.084;2023-06-10T11:42:20;103054.31;;;21.83;80.13
66689;BME280;53587;59.318;18.084;2023-06-10T11:44:52;103053.44;;;21.82;79.01
66689;BME280;53587;59.318;18.084;2023-06-10T11:47:17;103054.81;;;21.80;80.27
66689;BME280;53587;59.318;18.084;2023-06-10T11:49:43;103049.66;;;21.66;80.78
66689;BME280;53587;59.318;18.084;2023-06-10T11:52:08;103055.31;;;21.77;80.67
66689;BME280;53587;59.318;18.084;2023-06-10T11:54:34;103049.31;;;21.85;80.89
66689;BME280;53587;59.318;18.084;2023-06-10T11:56:59;103049.16;;;21.69;78.70
66689;BME280;53587;59.318;18.084;2023-06-10T11:59:28;103049.16;;;21.69;79.92
66689;BME280;53587;59.318;18.084;2023-06-10T12:01:54;103046.16;;;21.76;80.55
66689;BME280;53587;59.318;18.084;2023-06-10T12:04:19;103049.34;;;21.63;80.94
66689;BME280;53587;59.318;18.084;2023-06-10T12:06:49;103049.66;;;21.66;80.92
66689;BME280;53587;59.318;18.084;2023-06-10T12:11:40;103051.34;;;21.67;80.36
66689;BME280;53587;59.318;18.084;2023-06-10T12:14:07;103052.44;;;21.66;80.90
66689;BME280;53587;59.318;18.084;2023-06-10T12:16:32;103048.78;;;21.61;81.01
66689;BME280;53587;59.318;18.084;2023-06-10T12:19:01;103048.84;;;21.66;80.91
66689;BME280;53587;59.318;18.084;2023-06-10T12:21:28;103043.53;;;21.64;79.55
66689;BME280;53587;59.318;18.084;2023-06-10T12:24:09;103035.75;;;21.61;80.30
66689;BME280;53587;59.318;18.084;2023-06-10T12:26:35;103044.31;;;21.60;80.65
66689;BME280;53587;59.318;18.084;2023-06-10T12:29:01;103038.25;;;21.63;80.12
66689;BME280;53587;59.318;18.084;2023-06-10T12:31:26;103042.44;;;21.65;79.39
66689;BME280;53587;59.318;18.084;2023-06-10T12:34:07;103037.91;;;21.59;79.33
66689;BME280;53587;59.318;18.084;2023-06-10T12:36:33;103042.44;;;21.65;79.72
66689;BME280;53587;59.318;18.084;2023-06-10T12:39:03;103036.38;;;21.68;80.75
66689;BME280;53587;59.318;18.084;2023-06-10T12:41:28;103039.97;;;21.69;80.84
66689;BME280;53587;59.318;18.084;2023-06-10T12:43:54;103044.69;;;21.68;79.54
66689;BME280;53587;59.318;18.084;2023-06-10T12:46:19;103036.84;;;21.60;79.35
66689;BME280;53587;59.318;18.084;2023-06-10T12:48:50;103038.06;;;21.69;80.35
66689;BME280;53587;59.318;18.084;2023-06-10T12:51:20;103039.16;;;21.68;80.71